Sincerity Ace — 3FFD7 — position and weather

sailwx.info

Track history (hours):
 
Tides and Currents Weather Stations Pressure Air Temp Water Temp Dewpoint Dewpoint Depression Visibility Wind Speed Wind Dir Waves Ship Positions

Sincerity Ace

Last reported at 2015-Jun-22 19:33 UTC. Time now 2015-Jun-30 14:26 UTC.
Position S 24°01' W 046°21'.

Length 200 m; draft 8.4 m.

Type: Cargo ship. MMSI: 351690000.

Date/timePositionNaut miles runAvg speedWind from/ knotsBaromVisibWave heightAir tempDewpointWater temp
2015-Jun-22 19:33S 24°01' W 046°21'5 4.7
2015-Jun-22 18:33S 23°58' W 046°18'0 0.0
2015-Jun-22 17:30S 23°58' W 046°18'0 0.0
2015-Jun-22 16:33S 23°58' W 046°18'0 0.0
2015-Jun-22 15:33S 23°58' W 046°18'0 0.0
2015-Jun-22 14:21S 23°58' W 046°18'0 0.0
2015-Jun-22 13:33S 23°58' W 046°18'0 0.0
2015-Jun-22 12:24S 23°58' W 046°18'0 0.0
2015-Jun-22 11:33S 23°58' W 046°18'0 0.0
2015-Jun-22 10:33S 23°58' W 046°18'0 0.0
2015-Jun-22 09:33S 23°58' W 046°18'0 0.0
2015-Jun-22 08:33S 23°58' W 046°18'0 0.0
2015-Jun-22 07:33S 23°58' W 046°18'0 0.0
2015-Jun-22 05:27S 23°58' W 046°18'0 0.0
2015-Jun-22 04:24S 23°58' W 046°18'2 2.4
2015-Jun-22 03:32S 23°60' W 046°18'10 9.7
2015-Jun-22 02:33S 24°09' W 046°22'3 3.2
2015-Jun-22 01:31S 24°11' W 046°19'0 0.0
2015-Jun-22 00:31S 24°11' W 046°19'0 0.0
2015-Jun-21 23:31S 24°11' W 046°19'0 0.4
2015-Jun-21 22:33S 24°11' W 046°19'8 7.5
2015-Jun-21 21:33S 24°18' W 046°22'1110.6
2015-Jun-21 20:33S 24°28' W 046°23'1211.4
2015-Jun-21 19:30S 24°40' W 046°21'1 1.1
2015-Jun-21 18:17S 24°41' W 046°20'4 4.8
2015-Jun-21 17:32S 24°39' W 046°24'6 3.2
2015-Jun-21 15:32S 24°36' W 046°30'1 0.5
2015-Jun-21 14:20S 24°36' W 046°29'0 0.4
2015-Jun-21 13:26S 24°36' W 046°29'1 0.4
2015-Jun-21 12:05S 24°36' W 046°28'0 0.5
2015-Jun-21 11:23S 24°36' W 046°28'1 0.7
2015-Jun-21 10:32S 24°36' W 046°27'6 1.9
2015-Jun-21 07:26S 24°40' W 046°22'1 1.0
2015-Jun-21 06:33S 24°39' W 046°22'5 3.6
2015-Jun-21 05:09S 24°36' W 046°26'  
2015-Jun-18 15:04S 23°18' W 042°09'1518.0
2015-Jun-18 14:15S 23°18' W 041°53'1215.2
2015-Jun-18 13:27S 23°14' W 041°40'1717.3
2015-Jun-18 12:28S 23°00' W 041°29'  
Track history (hours):
 
Tides and Currents Weather Stations Pressure Air Temp Water Temp Dewpoint Dewpoint Depression Visibility Wind Speed Wind Dir Waves Ship Positions

Sincerity Ace

Last reported at 2015-Jun-22 19:33 UTC. Time now 2015-Jun-30 14:26 UTC.
Position S 24°01' W 046°21'.

Length 200 m; draft 8.4 m.

Type: Cargo ship. MMSI: 351690000.

Date/timePositionNaut miles runAvg speedWind from/ knotsBaromVisibWave heightAir tempDewpointWater temp
2015-Jun-22 19:33S 24°01' W 046°21'5 4.7
2015-Jun-22 18:33S 23°58' W 046°18'0 0.0
2015-Jun-22 17:30S 23°58' W 046°18'0 0.0
2015-Jun-22 16:33S 23°58' W 046°18'0 0.0
2015-Jun-22 15:33S 23°58' W 046°18'0 0.0
2015-Jun-22 14:21S 23°58' W 046°18'0 0.0
2015-Jun-22 13:33S 23°58' W 046°18'0 0.0
2015-Jun-22 12:24S 23°58' W 046°18'0 0.0
2015-Jun-22 11:33S 23°58' W 046°18'0 0.0
2015-Jun-22 10:33S 23°58' W 046°18'0 0.0
2015-Jun-22 09:33S 23°58' W 046°18'0 0.0
2015-Jun-22 08:33S 23°58' W 046°18'0 0.0
2015-Jun-22 07:33S 23°58' W 046°18'0 0.0
2015-Jun-22 05:27S 23°58' W 046°18'0 0.0
2015-Jun-22 04:24S 23°58' W 046°18'2 2.4
2015-Jun-22 03:32S 23°60' W 046°18'10 9.7
2015-Jun-22 02:33S 24°09' W 046°22'3 3.2
2015-Jun-22 01:31S 24°11' W 046°19'0 0.0
2015-Jun-22 00:31S 24°11' W 046°19'0 0.0
2015-Jun-21 23:31S 24°11' W 046°19'0 0.4
2015-Jun-21 22:33S 24°11' W 046°19'8 7.5
2015-Jun-21 21:33S 24°18' W 046°22'1110.6
2015-Jun-21 20:33S 24°28' W 046°23'1211.4
2015-Jun-21 19:30S 24°40' W 046°21'1 1.1
2015-Jun-21 18:17S 24°41' W 046°20'4 4.8
2015-Jun-21 17:32S 24°39' W 046°24'6 3.2
2015-Jun-21 15:32S 24°36' W 046°30'1 0.5
2015-Jun-21 14:20S 24°36' W 046°29'0 0.4
2015-Jun-21 13:26S 24°36' W 046°29'1 0.4
2015-Jun-21 12:05S 24°36' W 046°28'0 0.5
2015-Jun-21 11:23S 24°36' W 046°28'1 0.7
2015-Jun-21 10:32S 24°36' W 046°27'6 1.9
2015-Jun-21 07:26S 24°40' W 046°22'1 1.0
2015-Jun-21 06:33S 24°39' W 046°22'5 3.6
2015-Jun-21 05:09S 24°36' W 046°26'  
2015-Jun-18 15:04S 23°18' W 042°09'1518.0
2015-Jun-18 14:15S 23°18' W 041°53'1215.2
2015-Jun-18 13:27S 23°14' W 041°40'1717.3
2015-Jun-18 12:28S 23°00' W 041°29'  

Dump ship's entire track history